Time;durP1;ratioP1;P1;durP2;ratioP2;P2;SDS_P1;SDS_P2;PMS_P1;PMS_P2;Temp;Humidity;BMP_temperature;BMP_pressure;BME280_temperature;BME280_humidity;BME280_pressure;Samples;Min_cycle;Max_cycle;Signal;HPM_P1;HPM_P2
2023/09/13 00:01:40;;;;;;;10.52;1.55;;;10.70;99.90;;;;;;5054408;28;20025;-93
2023/09/13 00:04:09;;;;;;;9.85;1.80;;;10.60;99.90;;;;;;5054146;28;20535;-94
2023/09/13 00:06:35;;;;;;;7.25;1.40;;;10.60;99.90;;;;;;5053844;28;20596;-94
2023/09/13 00:09:00;;;;;;;5.35;1.40;;;10.60;99.90;;;;;;5052100;28;20031;-94
2023/09/13 00:11:26;;;;;;;10.98;1.73;;;10.60;99.90;;;;;;5052243;28;20544;-94
2023/09/13 00:13:52;;;;;;;12.93;1.85;;;10.50;99.90;;;;;;5053044;28;20111;-94
2023/09/13 00:16:18;;;;;;;7.38;1.90;;;10.50;99.90;;;;;;5055627;28;20478;-94
2023/09/13 00:18:44;;;;;;;7.50;1.67;;;10.50;99.90;;;;;;5057017;28;20100;-92
2023/09/13 00:21:13;;;;;;;4.25;1.20;;;10.40;99.90;;;;;;5057304;28;20055;-94
2023/09/13 00:23:38;;;;;;;9.98;1.50;;;10.40;99.90;;;;;;5061389;28;20025;-94
2023/09/13 00:26:04;;;;;;;10.05;1.77;;;10.40;99.90;;;;;;5064829;28;20040;-92
2023/09/13 00:28:32;;;;;;;6.68;1.40;;;10.40;99.90;;;;;;5062534;28;20017;-92
2023/09/13 00:31:01;;;;;;;8.10;2.05;;;10.40;99.90;;;;;;5062810;28;20031;-93
2023/09/13 00:33:26;;;;;;;5.07;1.52;;;10.30;99.90;;;;;;5059156;28;20025;-93
2023/09/13 00:35:56;;;;;;;6.30;1.40;;;10.30;99.90;;;;;;5060521;28;20116;-94
2023/09/13 00:38:22;;;;;;;4.28;1.60;;;10.30;99.90;;;;;;5059181;28;20025;-94
2023/09/13 00:40:47;;;;;;;10.65;1.80;;;10.30;99.90;;;;;;5057476;28;20051;-93
2023/09/13 00:43:13;;;;;;;6.20;1.92;;;10.30;99.90;;;;;;5055339;28;20021;-94
2023/09/13 00:45:40;;;;;;;9.57;2.15;;;10.30;99.90;;;;;;5055395;28;20029;-94
2023/09/13 00:48:07;;;;;;;6.22;1.63;;;10.30;99.90;;;;;;5053556;28;20449;-94
2023/09/13 00:50:35;;;;;;;10.07;1.75;;;10.30;99.90;;;;;;5052249;28;20453;-94
2023/09/13 00:53:06;;;;;;;7.25;1.48;;;10.30;99.90;;;;;;5054465;28;20116;-94
2023/09/13 00:55:34;;;;;;;;;;;10.30;99.90;;;;;;5053757;28;20025;-94
2023/09/13 00:58:01;;;;;;;9.90;2.35;;;10.30;99.90;;;;;;5052856;28;20008;-94
2023/09/13 01:00:27;;;;;;;4.00;1.60;;;10.30;99.90;;;;;;5053248;28;20060;-93
2023/09/13 01:02:53;;;;;;;8.85;1.98;;;10.20;99.90;;;;;;5049249;28;20037;-93
2023/09/13 01:05:19;;;;;;;5.45;1.50;;;10.20;99.90;;;;;;5053567;28;20029;-94
2023/09/13 01:07:49;;;;;;;12.80;1.83;;;10.20;99.90;;;;;;5052757;28;20044;-91
2023/09/13 01:10:19;;;;;;;3.70;1.30;;;10.20;99.90;;;;;;5051914;28;20032;-94
2023/09/13 01:12:45;;;;;;;8.27;1.87;;;10.20;99.90;;;;;;5052242;28;20312;-93
2023/09/13 01:15:12;;;;;;;6.20;1.75;;;10.20;99.90;;;;;;5053267;28;20362;-92
2023/09/13 01:18:10;;;;;;;8.73;1.70;;;10.20;99.90;;;;;;5055573;28;20028;-93
2023/09/13 01:21:20;;;;;;;7.47;1.60;;;10.20;99.90;;;;;;5055968;28;20048;-93
2023/09/13 01:24:13;;;;;;;7.13;1.80;;;10.20;99.90;;;;;;5038840;28;20040;-92
2023/09/13 01:26:39;;;;;;;9.68;1.58;;;10.20;99.90;;;;;;5040552;28;20032;-93
2023/09/13 01:29:05;;;;;;;6.65;1.80;;;10.10;99.90;;;;;;5038798;28;20051;-93
2023/09/13 01:31:32;;;;;;;7.88;1.50;;;10.10;99.90;;;;;;5037576;28;20033;-92
2023/09/13 01:33:57;;;;;;;6.68;1.60;;;10.10;99.90;;;;;;5036719;28;20039;-93
2023/09/13 01:36:24;;;;;;;7.30;2.40;;;10.20;99.90;;;;;;5037592;28;20116;-93
2023/09/13 01:38:50;;;;;;;6.00;1.50;;;10.10;99.90;;;;;;5038438;28;20045;-92
2023/09/13 01:41:31;;;;;;;13.23;1.73;;;10.10;99.90;;;;;;5037555;28;20032;-94
2023/09/13 01:43:58;;;;;;;5.35;1.58;;;10.10;99.90;;;;;;5037785;28;20025;-93
2023/09/13 01:46:30;;;;;;;8.25;1.60;;;10.10;99.90;;;;;;5037545;28;20048;-94
2023/09/13 01:48:56;;;;;;;8.30;1.95;;;10.10;99.90;;;;;;5038222;28;20021;-93
2023/09/13 01:51:25;;;;;;;8.02;2.17;;;10.10;99.90;;;;;;5038004;28;20029;-93
2023/09/13 01:53:50;;;;;;;11.07;3.80;;;10.10;99.90;;;;;;5037564;28;20037;-94
2023/09/13 01:56:21;;;;;;;6.32;1.33;;;10.10;99.90;;;;;;5037748;28;20025;-93
2023/09/13 01:58:48;;;;;;;8.82;1.60;;;10.10;99.90;;;;;;5039595;28;20500;-93
2023/09/13 02:01:13;;;;;;;3.47;1.88;;;10.10;99.90;;;;;;5055248;28;20065;-93
2023/09/13 02:03:39;;;;;;;8.35;1.60;;;10.00;99.90;;;;;;5054318;28;20045;-95
2023/09/13 02:06:05;;;;;;;5.38;1.77;;;10.00;99.90;;;;;;5054392;28;20063;-93
2023/09/13 02:08:30;;;;;;;5.70;1.33;;;10.00;99.90;;;;;;5054579;28;20055;-94
2023/09/13 02:10:56;;;;;;;5.50;1.80;;;10.00;99.90;;;;;;5055395;28;20033;-93
2023/09/13 02:13:21;;;;;;;7.68;1.48;;;10.00;99.90;;;;;;5054727;28;20029;-93
2023/09/13 02:15:47;;;;;;;4.53;1.50;;;10.00;99.90;;;;;;5054525;28;20021;-93
2023/09/13 02:18:13;;;;;;;8.88;1.58;;;10.00;99.90;;;;;;5054495;28;20036;-93
2023/09/13 02:20:38;;;;;;;3.75;1.40;;;10.00;99.90;;;;;;5054234;28;20036;-93
2023/09/13 02:23:04;;;;;;;4.72;1.60;;;10.00;99.90;;;;;;5054179;28;20033;-92
2023/09/13 02:25:36;;;;;;;6.32;1.60;;;10.00;99.90;;;;;;5054746;28;20029;-92
2023/09/13 02:28:02;;;;;;;9.50;1.80;;;10.00;99.90;;;;;;5054011;28;20059;-93
2023/09/13 02:30:27;;;;;;;7.32;1.52;;;10.00;99.90;;;;;;5054637;28;20064;-93
2023/09/13 02:32:53;;;;;;;4.28;1.85;;;10.00;99.90;;;;;;5055318;28;20025;-92
2023/09/13 02:35:19;;;;;;;10.18;1.98;;;10.00;99.90;;;;;;5054650;28;20033;-92
2023/09/13 02:37:45;;;;;;;6.60;1.50;;;10.00;99.90;;;;;;5055087;28;20032;-93
2023/09/13 02:40:11;;;;;;;6.07;1.50;;;10.00;99.90;;;;;;5054137;28;20055;-93
2023/09/13 02:42:37;;;;;;;3.83;1.38;;;9.90;99.90;;;;;;5054230;28;20025;-93
2023/09/13 02:45:03;;;;;;;9.50;1.75;;;9.90;99.90;;;;;;5054203;28;20033;-93
2023/09/13 02:47:29;;;;;;;9.07;1.80;;;9.90;99.90;;;;;;5054162;28;20021;-92
2023/09/13 02:49:55;;;;;;;14.90;1.85;;;9.90;99.90;;;;;;5054434;28;20036;-93
2023/09/13 02:52:32;;;;;;;4.50;1.38;;;9.90;99.90;;;;;;5054421;28;20071;-94
2023/09/13 02:54:58;;;;;;;7.97;2.30;;;10.00;99.90;;;;;;5055601;28;20033;-93
2023/09/13 02:57:24;;;;;;;13.60;1.58;;;10.00;99.90;;;;;;5058218;28;20056;-92
2023/09/13 02:59:50;;;;;;;5.00;1.63;;;10.00;99.90;;;;;;5069000;28;20047;-92
2023/09/13 03:02:16;;;;;;;6.22;1.52;;;10.10;99.90;;;;;;5070531;28;20032;-93
2023/09/13 03:04:42;;;;;;;8.98;1.70;;;10.10;99.90;;;;;;5059702;28;20503;-95
2023/09/13 03:07:08;;;;;;;8.18;1.42;;;10.10;99.90;;;;;;5056698;28;20025;-93
2023/09/13 03:09:34;;;;;;;5.70;1.33;;;10.00;99.90;;;;;;5058638;28;20068;-93
2023/09/13 03:12:01;;;;;;;5.43;1.50;;;10.00;99.90;;;;;;5056396;28;20017;-93
2023/09/13 03:14:30;;;;;;;6.80;1.45;;;10.00;99.90;;;;;;5055573;28;20028;-93
2023/09/13 03:16:56;;;;;;;10.80;1.95;;;10.00;99.90;;;;;;5056124;28;20048;-95
2023/09/13 03:19:21;;;;;;;5.03;1.50;;;10.00;99.90;;;;;;5058054;28;20025;-93
2023/09/13 03:21:47;;;;;;;11.52;1.52;;;10.00;99.90;;;;;;5058972;28;20438;-93
2023/09/13 03:24:13;;;;;;;7.05;1.50;;;10.00;99.90;;;;;;5056632;28;20021;-95
2023/09/13 03:26:38;;;;;;;7.53;1.52;;;10.00;99.90;;;;;;5055623;28;20024;-93
2023/09/13 03:29:04;;;;;;;6.20;1.27;;;10.00;99.90;;;;;;5060783;28;20110;-93
2023/09/13 03:31:32;;;;;;;7.07;1.65;;;10.00;99.90;;;;;;5062992;28;20039;-93
2023/09/13 03:33:58;;;;;;;16.00;2.80;;;10.00;99.90;;;;;;5066894;28;20039;-93
2023/09/13 03:36:28;;;;;;;7.10;1.05;;;10.00;99.90;;;;;;5057755;28;20037;-93
2023/09/13 03:38:54;;;;;;;6.22;1.30;;;10.10;99.90;;;;;;5055543;28;20048;-93
2023/09/13 03:41:22;;;;;;;5.47;1.20;;;10.10;99.90;;;;;;5058211;28;20094;-93
2023/09/13 03:43:48;;;;;;;5.97;1.27;;;10.10;99.90;;;;;;5057292;28;20092;-93
2023/09/13 03:46:14;;;;;;;6.57;1.30;;;10.10;99.90;;;;;;5059156;28;20025;-93
2023/09/13 03:48:40;;;;;;;8.85;1.42;;;10.10;99.90;;;;;;5059152;28;20112;-92
2023/09/13 03:51:07;;;;;;;11.10;1.92;;;10.10;99.90;;;;;;5058045;28;20032;-94
2023/09/13 03:53:33;;;;;;;5.63;1.10;;;10.10;99.90;;;;;;5057840;28;20115;-94
2023/09/13 03:56:00;;;;;;;7.18;1.42;;;10.10;99.90;;;;;;5057869;28;20052;-94
2023/09/13 03:58:26;;;;;;;8.43;1.48;;;10.10;99.90;;;;;;5054709;28;20025;-95
2023/09/13 04:00:53;;;;;;;5.57;1.30;;;10.10;99.90;;;;;;5055169;28;20028;-93
2023/09/13 04:03:19;;;;;;;6.50;2.25;;;10.10;99.90;;;;;;5053569;28;20025;-94
2023/09/13 04:05:45;;;;;;;9.90;1.45;;;10.10;99.90;;;;;;5053350;28;20032;-93
2023/09/13 04:08:11;;;;;;;10.38;1.48;;;10.10;99.90;;;;;;5052824;28;20025;-93
2023/09/13 04:10:37;;;;;;;9.98;2.05;;;10.10;99.90;;;;;;5054048;28;20116;-93
2023/09/13 04:13:03;;;;;;;6.10;1.33;;;10.00;99.90;;;;;;5057244;28;20029;-93
2023/09/13 04:15:29;;;;;;;4.63;1.00;;;10.00;99.90;;;;;;5059985;28;20474;-93
2023/09/13 04:17:55;;;;;;;3.55;1.25;;;10.00;99.90;;;;;;5064464;28;20036;-91
2023/09/13 04:20:21;;;;;;;7.60;1.50;;;10.00;99.90;;;;;;5077077;28;20044;-94
2023/09/13 04:22:47;;;;;;;6.65;1.25;;;10.00;99.90;;;;;;5076912;28;20009;-93
2023/09/13 04:25:13;;;;;;;5.90;1.27;;;9.90;99.90;;;;;;5072235;28;20033;-93
2023/09/13 04:27:42;;;;;;;5.40;1.40;;;9.90;99.90;;;;;;5052830;28;20101;-94
2023/09/13 04:30:08;;;;;;;3.72;1.27;;;9.90;99.90;;;;;;5053151;28;20498;-93
2023/09/13 04:32:34;;;;;;;4.07;1.20;;;9.90;99.90;;;;;;5053292;28;20033;-93
2023/09/13 04:35:00;;;;;;;10.55;2.55;;;9.90;99.90;;;;;;5055729;28;20115;-95
2023/09/13 04:37:27;;;;;;;9.25;1.25;;;9.90;99.90;;;;;;5057978;28;20032;-93
2023/09/13 04:39:53;;;;;;;3.33;1.10;;;9.80;99.90;;;;;;5060227;28;20136;-92
2023/09/13 04:42:21;;;;;;;4.43;1.30;;;9.90;99.90;;;;;;5057031;28;20049;-94
2023/09/13 04:44:47;;;;;;;6.90;1.20;;;9.80;99.90;;;;;;5037694;28;20132;-94
2023/09/13 04:47:13;;;;;;;7.53;1.52;;;9.80;99.90;;;;;;5054158;28;20075;-94
2023/09/13 04:49:38;;;;;;;4.95;1.17;;;9.80;99.90;;;;;;5054785;28;20031;-95
2023/09/13 04:52:06;;;;;;;6.72;1.50;;;9.80;99.90;;;;;;5054412;28;20036;-93
2023/09/13 04:54:31;;;;;;;1.65;1.00;;;9.80;99.90;;;;;;5054220;28;20078;-94
2023/09/13 04:56:57;;;;;;;2.25;1.23;;;9.70;99.90;;;;;;5054857;28;20093;-94
2023/09/13 04:59:41;;;;;;;5.72;1.10;;;9.70;99.90;;;;;;5054876;28;20123;-94
2023/09/13 05:02:07;;;;;;;4.95;1.65;;;9.70;99.90;;;;;;5053712;28;20032;-92
2023/09/13 05:04:33;;;;;;;4.97;1.40;;;9.70;99.90;;;;;;5053302;28;20049;-94
2023/09/13 05:06:58;;;;;;;10.55;1.20;;;9.70;99.90;;;;;;5053607;28;20049;-94
2023/09/13 05:09:24;;;;;;;6.25;1.42;;;9.70;99.90;;;;;;5054074;28;20447;-93
2023/09/13 05:11:49;;;;;;;8.85;1.38;;;9.60;99.90;;;;;;5054407;28;20109;-94
2023/09/13 05:14:15;;;;;;;4.10;1.30;;;9.70;99.90;;;;;;5053564;28;20036;-94
2023/09/13 05:16:41;;;;;;;5.15;1.20;;;9.60;99.90;;;;;;5054157;28;20017;-94
2023/09/13 05:19:07;;;;;;;5.95;1.20;;;9.60;99.90;;;;;;5052614;28;20025;-94
2023/09/13 05:21:34;;;;;;;9.75;1.10;;;9.60;99.90;;;;;;5053412;28;20464;-94
2023/09/13 05:24:00;;;;;;;4.55;1.27;;;9.60;99.90;;;;;;5052538;28;20032;-95
2023/09/13 05:26:25;;;;;;;2.40;1.00;;;9.50;99.90;;;;;;5053343;28;20025;-94
2023/09/13 05:28:51;;;;;;;3.35;1.00;;;9.50;99.90;;;;;;5053907;28;20124;-94
2023/09/13 05:31:17;;;;;;;1.88;0.90;;;9.50;99.90;;;;;;5052970;28;20056;-94
2023/09/13 05:33:42;;;;;;;5.85;1.25;;;9.40;99.90;;;;;;5052294;28;20466;-94
2023/09/13 05:36:09;;;;;;;6.00;1.40;;;9.40;99.90;;;;;;5052077;28;20455;-94
2023/09/13 05:38:34;;;;;;;4.03;0.95;;;9.30;99.90;;;;;;5051982;28;20068;-95
2023/09/13 05:41:11;;;;;;;6.15;1.30;;;9.30;99.90;;;;;;5052496;28;20025;-94
2023/09/13 05:43:42;;;;;;;5.55;1.02;;;9.20;99.90;;;;;;5054656;28;20058;-95
2023/09/13 05:46:08;;;;;;;6.30;1.40;;;9.20;99.90;;;;;;5060973;28;20037;-94
2023/09/13 05:48:35;;;;;;;5.00;2.28;;;9.10;99.90;;;;;;5057839;28;20029;-95
2023/09/13 05:51:01;;;;;;;11.13;1.38;;;9.10;99.90;;;;;;5051078;28;20025;-95
2023/09/13 05:53:28;;;;;;;5.10;1.20;;;9.10;99.90;;;;;;5052032;28;20021;-95
2023/09/13 05:55:53;;;;;;;7.45;1.30;;;9.00;99.90;;;;;;5052839;28;20033;-94
2023/09/13 05:58:19;;;;;;;6.68;1.30;;;8.90;99.90;;;;;;5051050;28;20083;-93
2023/09/13 06:00:50;;;;;;;6.53;1.20;;;8.90;99.90;;;;;;5051470;28;20460;-92
2023/09/13 06:03:19;;;;;;;7.43;1.60;;;8.80;99.90;;;;;;5054528;28;20021;-94
2023/09/13 06:05:50;;;;;;;10.57;2.15;;;8.80;99.90;;;;;;5055261;28;20040;-93
2023/09/13 06:08:17;;;;;;;3.95;1.10;;;8.80;99.90;;;;;;5056575;28;20017;-92
2023/09/13 06:10:43;;;;;;;9.38;1.48;;;8.70;99.90;;;;;;5056094;28;20069;-92
2023/09/13 06:13:08;;;;;;;5.22;1.30;;;8.70;99.90;;;;;;5055830;28;20061;-93
2023/09/13 06:15:34;;;;;;;6.05;1.15;;;8.70;99.90;;;;;;5055187;28;20083;-93
2023/09/13 06:17:59;;;;;;;4.40;1.50;;;8.70;99.90;;;;;;5058564;28;20018;-94
2023/09/13 06:20:25;;;;;;;4.68;1.40;;;8.70;99.90;;;;;;5055959;28;20112;-93
2023/09/13 06:22:51;;;;;;;10.65;2.15;;;8.70;99.90;;;;;;5054317;28;20490;-94
2023/09/13 06:25:17;;;;;;;8.20;1.48;;;8.70;99.90;;;;;;5054937;28;20493;-93
2023/09/13 06:27:46;;;;;;;4.88;1.23;;;8.80;99.90;;;;;;5055673;28;20026;-93
2023/09/13 06:30:15;;;;;;;4.68;1.63;;;8.80;99.90;;;;;;5054339;28;20033;-94
2023/09/13 06:32:41;;;;;;;3.13;1.08;;;8.80;99.90;;;;;;5054560;28;20453;-94
2023/09/13 06:35:11;;;;;;;5.40;1.40;;;8.90;99.90;;;;;;5055776;28;20025;-94
2023/09/13 06:37:36;;;;;;;9.23;1.35;;;8.90;99.90;;;;;;5045766;28;20462;-93
2023/09/13 06:40:03;;;;;;;2.78;1.02;;;8.90;99.90;;;;;;5043973;28;20095;-93
2023/09/13 06:42:29;;;;;;;9.95;1.48;;;9.00;99.90;;;;;;5045168;28;20029;-93
2023/09/13 06:44:55;;;;;;;5.00;1.33;;;9.00;99.90;;;;;;5044198;28;20548;-93
2023/09/13 06:47:20;;;;;;;3.58;1.42;;;9.00;99.90;;;;;;5056648;28;20029;-93
2023/09/13 06:49:46;;;;;;;3.30;1.20;;;9.00;99.90;;;;;;5045591;28;20550;-92
2023/09/13 06:52:12;;;;;;;7.07;1.30;;;9.00;99.90;;;;;;5053395;28;20331;-92
2023/09/13 06:54:38;;;;;;;5.20;1.20;;;9.00;99.90;;;;;;5058174;28;20029;-92
2023/09/13 06:57:05;;;;;;;4.38;1.52;;;9.10;99.90;;;;;;5055850;28;20463;-92
2023/09/13 06:59:32;;;;;;;4.00;1.55;;;9.10;99.90;;;;;;5062329;28;20104;-94
2023/09/13 07:01:58;;;;;;;4.20;1.48;;;9.10;99.90;;;;;;5060546;28;20116;-92
2023/09/13 07:04:23;;;;;;;5.80;1.27;;;9.20;99.90;;;;;;5066062;28;20033;-93
2023/09/13 07:06:49;;;;;;;4.60;1.58;;;9.20;99.90;;;;;;5051538;28;20485;-93
2023/09/13 07:09:15;;;;;;;4.82;1.60;;;9.20;99.90;;;;;;5043083;28;20033;-90
2023/09/13 07:11:40;;;;;;;4.85;1.40;;;9.30;99.90;;;;;;5041477;28;20471;-92
2023/09/13 07:14:06;;;;;;;5.28;1.42;;;9.30;99.90;;;;;;5039071;28;20044;-92
2023/09/13 07:16:32;;;;;;;3.80;1.40;;;9.40;99.90;;;;;;5055347;28;20025;-93
2023/09/13 07:18:57;;;;;;;7.32;1.92;;;9.50;99.90;;;;;;5047273;28;20024;-93
2023/09/13 07:21:23;;;;;;;9.27;1.50;;;9.60;99.90;;;;;;5050948;28;20025;-92
2023/09/13 07:23:49;;;;;;;3.28;1.48;;;9.70;99.90;;;;;;5043955;28;20018;-93
2023/09/13 07:26:14;;;;;;;6.88;1.65;;;9.70;99.90;;;;;;5049974;28;20056;-93
2023/09/13 07:28:40;;;;;;;3.30;1.20;;;9.80;99.90;;;;;;5058159;28;20025;-92
2023/09/13 07:31:10;;;;;;;11.02;1.20;;;9.90;99.90;;;;;;5047763;28;20021;-92
2023/09/13 07:33:35;;;;;;;5.43;1.73;;;9.90;99.90;;;;;;5051630;28;20035;-93
2023/09/13 07:36:04;;;;;;;3.53;1.08;;;9.90;99.90;;;;;;5060361;28;20049;-91
2023/09/13 07:38:30;;;;;;;2.92;0.85;;;10.00;99.90;;;;;;5053672;28;20045;-93
2023/09/13 07:40:56;;;;;;;6.85;1.17;;;10.10;99.90;;;;;;5047684;28;20032;-93
2023/09/13 07:43:21;;;;;;;4.00;1.10;;;10.30;99.90;;;;;;5051329;28;20021;-92
2023/09/13 07:45:47;;;;;;;4.82;1.40;;;10.40;99.90;;;;;;5044514;28;20385;-93
2023/09/13 07:48:13;;;;;;;7.15;1.10;;;10.60;99.90;;;;;;5054670;28;20080;-91
2023/09/13 07:50:42;;;;;;;8.65;2.17;;;10.70;99.90;;;;;;5049289;28;20067;-94
2023/09/13 07:53:12;;;;;;;6.43;1.35;;;10.80;99.90;;;;;;5050716;28;20034;-92
2023/09/13 07:55:38;;;;;;;5.50;1.17;;;10.90;99.90;;;;;;5067028;28;20028;-95
2023/09/13 07:58:06;;;;;;;5.53;0.85;;;11.10;99.90;;;;;;5057305;28;20021;-95
2023/09/13 08:00:32;;;;;;;5.45;1.75;;;11.10;99.90;;;;;;5043846;28;20041;-93
2023/09/13 08:03:02;;;;;;;7.63;1.50;;;11.30;99.90;;;;;;5043339;28;20022;-94
2023/09/13 08:05:28;;;;;;;3.65;1.00;;;11.40;99.90;;;;;;5047829;28;20490;-93
2023/09/13 08:07:54;;;;;;;5.10;1.10;;;11.50;99.90;;;;;;5045141;28;20052;-95
2023/09/13 08:10:21;;;;;;;6.20;1.33;;;11.60;99.90;;;;;;5043826;28;20044;-93
2023/09/13 08:12:48;;;;;;;5.15;1.40;;;11.70;99.90;;;;;;5047818;28;20029;-95
2023/09/13 08:15:17;;;;;;;6.15;1.30;;;11.80;99.90;;;;;;5040375;28;20013;-93
2023/09/13 08:17:43;;;;;;;3.30;1.20;;;12.00;99.90;;;;;;5047300;28;20470;-95
2023/09/13 08:20:09;;;;;;;4.43;0.93;;;12.10;99.90;;;;;;5041255;28;20060;-93
2023/09/13 08:22:35;;;;;;;2.60;0.90;;;12.30;99.90;;;;;;5050616;28;20028;-93
2023/09/13 08:25:01;;;;;;;5.18;1.50;;;12.40;99.90;;;;;;5046403;28;20099;-94
2023/09/13 08:27:27;;;;;;;3.20;1.25;;;12.50;99.90;;;;;;5075751;28;20020;-93
2023/09/13 08:29:53;;;;;;;4.50;1.27;;;12.60;99.90;;;;;;5059979;28;20029;-94
2023/09/13 08:32:19;;;;;;;5.88;1.00;;;12.80;99.90;;;;;;5056167;28;20045;-95
2023/09/13 08:34:45;;;;;;;10.00;1.55;;;12.90;99.90;;;;;;5040843;28;20095;-94
2023/09/13 08:37:10;;;;;;;9.90;1.48;;;13.00;99.90;;;;;;5051651;28;20032;-94
2023/09/13 08:39:36;;;;;;;7.53;1.35;;;13.10;99.90;;;;;;5059204;28;20414;-95
2023/09/13 08:42:02;;;;;;;11.65;1.88;;;13.20;99.90;;;;;;5060859;28;20033;-94
2023/09/13 08:44:30;;;;;;;7.20;1.05;;;13.30;99.90;;;;;;5058040;28;20024;-94
2023/09/13 08:46:58;;;;;;;2.15;1.00;;;13.30;99.90;;;;;;5059030;28;20021;-94
2023/09/13 08:49:28;;;;;;;5.85;1.17;;;13.30;99.90;;;;;;5059326;28;20025;-96
2023/09/13 08:51:58;;;;;;;7.30;1.23;;;13.40;99.90;;;;;;5063853;28;20033;-95
2023/09/13 08:54:31;;;;;;;8.93;1.55;;;13.60;99.90;;;;;;5062627;28;20128;-96
2023/09/13 08:56:58;;;;;;;3.78;1.25;;;13.80;99.90;;;;;;5072169;28;20041;-96
2023/09/13 08:59:27;;;;;;;5.22;1.15;;;14.10;99.90;;;;;;5071327;28;20037;-96
2023/09/13 09:01:54;;;;;;;5.40;1.33;;;14.20;99.90;;;;;;5081439;28;20039;-95
2023/09/13 09:04:24;;;;;;;5.03;1.17;;;14.30;99.90;;;;;;5083526;28;20049;-94
2023/09/13 09:06:53;;;;;;;9.50;1.30;;;14.40;99.90;;;;;;5080789;28;20027;-94
2023/09/13 09:09:33;;;;;;;;;;;;;;;;;;;;;
2023/09/13 09:12:06;;;;;;;4.88;1.52;;;14.60;99.90;;;;;;5084824;28;20036;-93
2023/09/13 09:14:36;;;;;;;6.90;1.30;;;14.70;99.90;;;;;;5095656;28;20060;-96
2023/09/13 09:17:02;;;;;;;5.68;1.60;;;14.90;99.90;;;;;;5068070;28;20037;-95
2023/09/13 09:19:33;;;;;;;4.85;1.20;;;15.00;99.90;;;;;;5073417;28;20041;-96
2023/09/13 09:22:02;;;;;;;;;;;15.10;99.90;;;;;;5084272;28;20047;-92
2023/09/13 09:24:35;;;;;;;5.55;1.30;;;15.20;99.90;;;;;;5096148;28;19969;-93
2023/09/13 09:27:00;;;;;;;30.05;4.57;;;15.20;99.90;;;;;;5084326;28;20028;-95
2023/09/13 09:29:35;;;;;;;17.38;2.00;;;15.40;99.90;;;;;;5062244;28;20032;-96
2023/09/13 09:32:07;;;;;;;5.40;1.40;;;15.40;99.90;;;;;;5057524;28;20059;-95
2023/09/13 09:34:33;;;;;;;8.10;1.27;;;15.50;99.90;;;;;;5066615;28;20041;-96
2023/09/13 09:37:08;;;;;;;10.93;1.75;;;15.60;99.90;;;;;;5064096;28;20044;-95
2023/09/13 09:39:41;;;;;;;4.60;1.27;;;15.70;99.90;;;;;;5067949;28;20410;-94
2023/09/13 09:42:13;;;;;;;9.32;1.63;;;15.90;99.90;;;;;;5080265;28;20029;-96
2023/09/13 09:44:39;;;;;;;10.30;1.42;;;16.10;99.90;;;;;;5082965;28;20025;-94
2023/09/13 09:47:05;;;;;;;7.65;1.80;;;16.30;99.90;;;;;;5060073;28;20103;-94
2023/09/13 09:49:30;;;;;;;8.55;2.60;;;16.50;99.90;;;;;;5041312;28;20026;-92
2023/09/13 09:51:56;;;;;;;9.77;1.48;;;16.70;99.90;;;;;;5055332;28;20052;-94
2023/09/13 09:54:22;;;;;;;7.68;1.77;;;16.90;99.90;;;;;;5072775;28;20021;-94
2023/09/13 09:56:47;;;;;;;6.40;1.40;;;17.00;99.90;;;;;;5064222;28;20028;-93
2023/09/13 09:59:13;;;;;;;3.70;0.80;;;17.20;99.90;;;;;;5082436;28;20044;-95
2023/09/13 10:01:39;;;;;;;5.43;1.38;;;17.30;99.90;;;;;;5083221;28;20038;-96
2023/09/13 10:04:11;;;;;;;5.40;1.40;;;17.40;99.90;;;;;;5090031;28;20029;-95
2023/09/13 10:06:54;;;;;;;3.88;1.05;;;17.60;99.90;;;;;;5074916;28;20111;-95
2023/09/13 10:09:47;;;;;;;9.48;1.77;;;17.70;99.90;;;;;;5090576;28;20041;-95
2023/09/13 10:12:15;;;;;;;4.93;1.30;;;17.90;99.90;;;;;;5075817;28;20025;-96
2023/09/13 10:14:42;;;;;;;11.13;1.85;;;18.10;99.90;;;;;;5068758;28;20029;-95
2023/09/13 10:17:11;;;;;;;5.57;1.80;;;18.00;99.90;;;;;;5069048;28;20040;-95
2023/09/13 10:19:38;;;;;;;6.25;1.70;;;17.90;99.90;;;;;;5068774;28;20056;-95
2023/09/13 10:22:04;;;;;;;5.65;1.42;;;17.80;99.90;;;;;;5067424;28;20032;-96
2023/09/13 10:24:42;;;;;;;6.68;1.60;;;17.70;99.90;;;;;;5066810;28;20071;-95
2023/09/13 10:27:11;;;;;;;7.50;1.73;;;17.60;99.90;;;;;;5065510;28;20102;-94
2023/09/13 10:29:53;;;;;;;9.02;1.63;;;17.60;99.90;;;;;;5062505;28;20029;-95
2023/09/13 10:32:22;;;;;;;6.30;1.40;;;17.50;99.90;;;;;;5051095;28;20112;-92
2023/09/13 10:34:52;;;;;;;2.83;1.45;;;17.50;99.90;;;;;;5047994;28;20083;-96
2023/09/13 10:37:34;;;;;;;5.10;1.40;;;17.60;99.90;;;;;;5041213;28;20047;-95
2023/09/13 10:40:33;;;;;;;9.13;1.80;;;17.80;99.90;;;;;;5053159;28;20116;-95
2023/09/13 10:43:00;;;;;;;5.95;1.63;;;18.10;99.90;;;;;;5065428;28;20099;-93
2023/09/13 10:45:27;;;;;;;4.50;1.23;;;18.40;99.90;;;;;;5071954;28;20032;-93
2023/09/13 10:47:54;;;;;;;6.22;1.50;;;18.60;99.10;;;;;;5068089;28;20052;-93
2023/09/13 10:50:21;;;;;;;9.50;1.55;;;18.90;98.10;;;;;;5078565;28;20036;-96
2023/09/13 10:52:49;;;;;;;4.78;1.42;;;19.00;97.00;;;;;;5076818;28;20047;-94
2023/09/13 10:55:15;;;;;;;4.45;1.60;;;19.10;96.10;;;;;;5077693;28;20024;-93
2023/09/13 10:57:42;;;;;;;14.63;1.85;;;19.20;95.70;;;;;;5079310;28;20054;-96
2023/09/13 11:00:11;;;;;;;5.43;1.58;;;19.30;94.90;;;;;;5079905;28;20032;-95
2023/09/13 11:02:38;;;;;;;6.05;1.50;;;19.30;94.60;;;;;;5058613;28;20039;-95
2023/09/13 11:05:05;;;;;;;9.18;1.60;;;19.10;94.10;;;;;;5060745;28;20032;-95
2023/09/13 11:07:33;;;;;;;5.53;1.70;;;18.90;94.20;;;;;;5082399;28;20070;-95
2023/09/13 11:10:05;;;;;;;9.00;1.85;;;18.80;94.40;;;;;;5081554;28;20032;-96
2023/09/13 11:12:35;;;;;;;7.82;1.95;;;18.80;93.80;;;;;;5062334;28;20095;-95
2023/09/13 11:15:19;;;;;;;5.82;1.48;;;18.80;93.30;;;;;;5063684;28;20033;-96
2023/09/13 11:17:45;;;;;;;4.45;1.98;;;18.70;92.80;;;;;;5059748;28;20073;-96
2023/09/13 11:20:27;;;;;;;6.43;1.70;;;18.60;92.70;;;;;;5055383;28;20040;-95
2023/09/13 11:23:12;;;;;;;8.02;2.28;;;18.40;92.60;;;;;;5038941;28;20025;-96
2023/09/13 11:25:49;;;;;;;5.60;1.75;;;18.10;92.70;;;;;;5042971;28;20028;-95
2023/09/13 11:28:37;;;;;;;9.40;1.98;;;18.10;93.20;;;;;;5040843;28;20093;-95
2023/09/13 11:31:04;;;;;;;8.13;1.88;;;18.00;93.90;;;;;;5046145;28;20030;-96
2023/09/13 11:33:44;;;;;;;15.60;5.03;;;18.00;94.20;;;;;;5051003;28;20559;-95
2023/09/13 11:36:17;;;;;;;6.72;2.53;;;18.10;94.10;;;;;;5070010;28;20012;-94
2023/09/13 11:38:43;;;;;;;5.97;2.05;;;18.20;94.20;;;;;;5079868;28;20108;-96
2023/09/13 11:41:08;;;;;;;7.05;2.33;;;18.20;94.30;;;;;;5074659;28;20431;-95
2023/09/13 11:43:40;;;;;;;6.82;1.73;;;18.10;93.90;;;;;;5064535;28;20394;-95
2023/09/13 11:46:06;;;;;;;5.07;1.77;;;18.00;93.80;;;;;;5070467;28;20024;-92
2023/09/13 11:48:39;;;;;;;9.18;2.30;;;17.90;94.10;;;;;;5081967;28;20104;-93
2023/09/13 11:51:24;;;;;;;7.90;2.17;;;17.90;94.20;;;;;;5070945;28;20025;-94
2023/09/13 11:54:15;;;;;;;5.20;1.90;;;17.90;94.30;;;;;;5094087;28;20084;-95
2023/09/13 11:56:43;;;;;;;7.50;2.10;;;17.90;94.40;;;;;;5082078;28;20060;-94
2023/09/13 11:59:09;;;;;;;8.32;2.40;;;17.80;94.20;;;;;;5055646;28;20108;-95
2023/09/13 12:01:46;;;;;;;6.63;2.03;;;17.70;94.30;;;;;;5065452;28;20060;-94
2023/09/13 12:04:13;;;;;;;8.02;1.90;;;17.70;94.50;;;;;;5044794;28;20029;-95
2023/09/13 12:06:48;;;;;;;6.65;2.10;;;17.80;94.50;;;;;;5061640;28;20029;-96
2023/09/13 12:09:19;;;;;;;9.23;2.40;;;18.00;94.40;;;;;;5071642;28;20068;-95
2023/09/13 12:11:49;;;;;;;6.30;2.85;;;18.20;94.20;;;;;;5082386;28;20036;-96
2023/09/13 12:14:16;;;;;;;7.20;3.05;;;18.40;93.30;;;;;;5081251;28;20017;-96
2023/09/13 12:16:42;;;;;;;13.50;2.70;;;18.50;92.40;;;;;;5069447;28;20020;-96
2023/09/13 12:19:12;;;;;;;7.95;2.50;;;18.60;91.50;;;;;;5060610;28;20097;-94
2023/09/13 12:21:43;;;;;;;8.85;2.40;;;18.70;90.80;;;;;;5052500;28;20033;-94
2023/09/13 12:24:12;;;;;;;11.05;3.08;;;18.70;90.30;;;;;;5059967;28;20044;-95
2023/09/13 12:26:40;;;;;;;8.00;2.70;;;18.70;90.00;;;;;;5072820;28;20020;-94
2023/09/13 12:29:07;;;;;;;6.07;2.55;;;18.60;88.50;;;;;;5080488;28;20047;-96
2023/09/13 12:31:33;;;;;;;10.05;2.70;;;18.50;88.20;;;;;;5051849;28;20045;-94
2023/09/13 12:34:01;;;;;;;9.52;2.80;;;18.50;87.90;;;;;;5050976;28;20001;-95
2023/09/13 12:36:30;;;;;;;6.13;2.60;;;18.50;87.50;;;;;;5064669;28;20103;-95
2023/09/13 12:38:58;;;;;;;6.20;1.83;;;18.40;86.10;;;;;;5075399;28;20048;-95
2023/09/13 12:41:29;;;;;;;9.57;2.80;;;18.30;85.40;;;;;;5087853;28;20024;-96
2023/09/13 12:43:56;;;;;;;6.20;2.80;;;18.20;86.10;;;;;;5086294;28;20020;-95
2023/09/13 12:46:25;;;;;;;11.10;2.78;;;18.20;86.40;;;;;;5090450;28;20024;-96
2023/09/13 12:48:51;;;;;;;5.28;2.45;;;18.20;86.50;;;;;;5090170;28;20043;-95
2023/09/13 12:51:21;;;;;;;5.28;2.65;;;18.30;86.90;;;;;;5091551;28;20040;-96
2023/09/13 12:53:51;;;;;;;6.57;2.33;;;18.60;86.90;;;;;;5088460;28;20025;-96
2023/09/13 12:56:17;;;;;;;52.20;7.43;;;19.10;86.50;;;;;;5080688;28;20021;-96